Time;durP1;ratioP1;P1;durP2;ratioP2;P2;SDS_P1;SDS_P2;PMS_P1;PMS_P2;Temp;Humidity;BMP_temperature;BMP_pressure;BME280_temperature;BME280_humidity;BME280_pressure;Samples;Min_cycle;Max_cycle;Signal;HPM_P1;HPM_P2
2024/02/19 00:01:20;;;;;;;0.00;0.00;;;;;;;8.15;90.00;101126.31;15778899;28;20474;-58
2024/02/19 00:08:54;;;;;;;0.30;0.30;;;;;;;8.15;90.26;101118.31;15742047;28;20041;-49
2024/02/19 00:16:29;;;;;;;0.00;0.00;;;;;;;8.29;88.81;101119.31;15774470;28;20093;-52
2024/02/19 00:24:03;;;;;;;0.47;0.47;;;;;;;8.33;88.91;101113.41;15803259;28;20214;-49
2024/02/19 00:31:39;;;;;;;0.63;0.60;;;;;;;8.50;87.43;101100.69;15800029;28;20138;-51
2024/02/19 00:39:15;;;;;;;1.17;0.30;;;;;;;8.40;88.16;101081.44;15801062;28;20409;-49
2024/02/19 00:46:50;;;;;;;0.20;0.15;;;;;;;8.43;87.45;101078.38;15798674;28;20050;-51
2024/02/19 00:54:23;;;;;;;0.05;0.05;;;;;;;8.33;87.87;101054.56;15741997;28;20063;-50
2024/02/19 01:01:58;;;;;;;0.00;0.00;;;;;;;8.52;86.66;101055.00;15740145;28;20417;-49
2024/02/19 01:09:32;;;;;;;1.70;0.50;;;;;;;8.45;86.79;101040.75;15736532;28;20076;-50
2024/02/19 01:17:09;;;;;;;0.17;0.17;;;;;;;8.57;86.06;101029.34;15780625;28;20040;-51
2024/02/19 01:24:43;;;;;;;0.63;0.63;;;;;;;8.57;85.69;101018.63;15797113;28;20568;-50
2024/02/19 01:32:19;;;;;;;0.00;0.00;;;;;;;8.80;84.76;101017.63;15738687;28;20104;-51
2024/02/19 01:39:53;;;;;;;0.00;0.00;;;;;;;8.70;85.42;101012.59;15740119;28;20047;-49
2024/02/19 01:47:30;;;;;;;0.00;0.00;;;;;;;8.60;85.49;101001.38;15773774;28;20046;-49
2024/02/19 01:55:04;;;;;;;0.55;0.15;;;;;;;8.73;84.60;100985.47;15811028;28;20500;-52
2024/02/19 02:02:40;;;;;;;0.00;0.00;;;;;;;8.86;84.66;100992.75;15813147;28;20044;-49
2024/02/19 02:10:15;;;;;;;0.55;0.30;;;;;;;8.57;86.17;100981.19;15817335;28;20070;-51
2024/02/19 02:17:50;;;;;;;0.77;0.77;;;;;;;8.71;85.42;100975.97;15812455;28;20036;-53
2024/02/19 02:25:27;;;;;;;0.00;0.00;;;;;;;8.77;85.81;100973.34;15817538;28;20050;-48
2024/02/19 02:33:06;;;;;;;0.00;0.00;;;;;;;8.65;86.01;100974.88;15778550;28;20106;-49
2024/02/19 02:40:40;;;;;;;0.00;0.00;;;;;;;8.80;85.82;100972.13;15765593;28;20052;-49
2024/02/19 02:48:15;;;;;;;0.73;0.30;;;;;;;8.94;85.22;100952.47;15796920;28;20451;-49
2024/02/19 02:55:51;;;;;;;0.03;0.03;;;;;;;8.83;86.87;100947.66;15763859;28;20508;-48
2024/02/19 03:03:32;;;;;;;0.20;0.10;;;;;;;8.58;88.35;100944.53;15785633;28;20070;-54
2024/02/19 03:11:06;;;;;;;0.00;0.00;;;;;;;8.63;88.33;100921.56;15805847;28;20040;-49
2024/02/19 03:18:43;;;;;;;0.00;0.00;;;;;;;8.46;89.12;100924.69;15797152;28;20044;-50
2024/02/19 03:26:24;;;;;;;0.00;0.00;;;;;;;8.53;89.60;100929.06;15778961;28;20131;-51
2024/02/19 03:34:00;;;;;;;0.10;0.10;;;;;;;8.55;90.18;100931.56;15812712;28;20556;-47
2024/02/19 03:41:35;;;;;;;0.52;0.25;;;;;;;8.23;91.34;100923.00;15799502;28;20560;-51
2024/02/19 03:49:13;;;;;;;0.00;0.00;;;;;;;8.28;92.12;100922.44;15804585;28;20040;-52
2024/02/19 03:56:51;;;;;;;0.10;0.10;;;;;;;8.28;91.60;100928.59;15786045;28;20040;-49
2024/02/19 04:04:26;;;;;;;0.00;0.00;;;;;;;8.12;93.21;100947.59;15779500;28;20494;-47
2024/02/19 04:12:00;;;;;;;0.10;0.10;;;;;;;8.32;92.76;100951.28;15780812;28;20114;-50
2024/02/19 04:19:38;;;;;;;0.00;0.00;;;;;;;8.32;92.35;100958.47;15803839;28;20044;-47
2024/02/19 04:27:18;;;;;;;0.05;0.05;;;;;;;8.18;93.00;100974.38;15801515;28;20084;-49
2024/02/19 04:34:54;;;;;;;0.80;0.20;;;;;;;8.21;92.50;100980.34;15801203;28;20515;-46
2024/02/19 04:42:28;;;;;;;0.00;0.00;;;;;;;8.16;92.41;100989.78;15801682;28;20139;-49
2024/02/19 04:50:10;;;;;;;0.00;0.00;;;;;;;7.89;92.58;101011.88;15802150;28;20499;-48
2024/02/19 04:57:44;;;;;;;0.05;0.05;;;;;;;8.01;91.67;101020.22;15798939;28;20135;-48
2024/02/19 05:05:26;;;;;;;0.00;0.00;;;;;;;7.98;90.80;101039.31;15801288;28;20059;-48
2024/02/19 05:13:02;;;;;;;0.00;0.00;;;;;;;7.59;92.34;101035.91;15798078;28;20059;-50
2024/02/19 05:20:41;;;;;;;0.00;0.00;;;;;;;7.79;91.34;101041.56;15756139;28;20755;-47
2024/02/19 05:28:14;;;;;;;0.00;0.00;;;;;;;7.49;91.50;101066.56;15739553;28;20067;-48
2024/02/19 05:35:50;;;;;;;0.00;0.00;;;;;;;7.50;90.59;101077.06;15737353;28;20040;-50
2024/02/19 05:43:24;;;;;;;0.00;0.00;;;;;;;7.52;89.95;101099.09;15739054;28;20041;-50
2024/02/19 05:51:03;;;;;;;0.00;0.00;;;;;;;7.14;90.10;101108.94;15793726;28;20051;-47
2024/02/19 05:58:40;;;;;;;0.00;0.00;;;;;;;6.90;89.55;101110.78;15783705;28;20056;-48
2024/02/19 06:06:15;;;;;;;0.00;0.00;;;;;;;7.04;89.15;101124.34;15749779;28;20508;-48
2024/02/19 06:13:49;;;;;;;0.00;0.00;;;;;;;6.98;89.42;101130.41;15811465;28;20044;-50
2024/02/19 06:21:24;;;;;;;0.00;0.00;;;;;;;7.26;88.81;101144.03;15814554;28;20529;-48
2024/02/19 06:28:58;;;;;;;0.00;0.00;;;;;;;7.12;88.53;101146.47;15781464;28;20060;-47
2024/02/19 06:36:32;;;;;;;;;;;;;;;7.15;88.73;101166.66;15807393;28;20046;-48
2024/02/19 06:44:06;;;;;;;0.00;0.00;;;;;;;7.19;89.40;101175.16;15805173;28;19973;-46
2024/02/19 06:51:42;;;;;;;0.00;0.00;;;;;;;7.20;88.74;101179.47;15810399;28;20055;-49
2024/02/19 06:59:16;;;;;;;0.00;0.00;;;;;;;7.26;89.01;101189.44;15808326;28;20062;-48
2024/02/19 07:06:52;;;;;;;0.00;0.00;;;;;;;6.75;91.86;101197.06;15794827;28;20046;-48
2024/02/19 07:14:26;;;;;;;0.00;0.00;;;;;;;7.01;91.93;101208.28;15791680;28;20040;-50
2024/02/19 07:22:02;;;;;;;0.00;0.00;;;;;;;6.76;91.56;101204.91;15764967;28;20477;-58
2024/02/19 07:29:36;;;;;;;0.00;0.00;;;;;;;7.13;91.16;101211.38;15798379;28;20044;-52
2024/02/19 07:37:12;;;;;;;0.00;0.00;;;;;;;6.73;90.94;101233.75;15776585;28;20063;-52
2024/02/19 07:44:46;;;;;;;0.00;0.00;;;;;;;6.88;90.26;101237.38;15802006;28;20040;-48
2024/02/19 07:52:22;;;;;;;0.00;0.00;;;;;;;6.88;89.75;101266.72;15805735;28;20101;-50
2024/02/19 07:59:56;;;;;;;0.00;0.00;;;;;;;6.68;90.64;101273.47;15804058;28;20052;-49
2024/02/19 08:07:31;;;;;;;0.25;0.20;;;;;;;6.57;90.59;101286.16;15803432;28;20044;-50
2024/02/19 08:15:06;;;;;;;0.00;0.00;;;;;;;6.76;90.01;101313.44;15803973;28;20039;-48
2024/02/19 08:22:42;;;;;;;0.00;0.00;;;;;;;6.81;89.98;101335.13;15804223;28;20071;-50
2024/02/19 08:30:16;;;;;;;0.00;0.00;;;;;;;6.79;89.61;101340.63;15805061;28;20032;-52
2024/02/19 08:37:52;;;;;;;0.00;0.00;;;;;;;6.79;89.98;101353.97;15809152;28;20044;-50
2024/02/19 08:45:37;;;;;;;0.00;0.00;;;;;;;6.38;90.75;101361.19;15806607;28;20037;-52
2024/02/19 08:53:12;;;;;;;0.00;0.00;;;;;;;6.52;90.98;101373.00;15818761;28;20044;-49
2024/02/19 09:00:47;;;;;;;0.00;0.00;;;;;;;6.48;89.99;101385.88;15797547;28;20055;-49
2024/02/19 09:08:24;;;;;;;0.00;0.00;;;;;;;6.53;89.32;101396.84;15801730;28;20468;-48
2024/02/19 09:15:58;;;;;;;0.08;0.08;;;;;;;6.31;89.92;101410.84;15806130;28;20360;-48
2024/02/19 09:23:37;;;;;;;0.00;0.00;;;;;;;6.64;87.69;101425.00;15787102;28;20044;-53
2024/02/19 09:31:11;;;;;;;0.00;0.00;;;;;;;6.82;86.94;101438.19;15801369;28;20478;-46
2024/02/19 09:38:48;;;;;;;0.15;0.15;;;;;;;6.59;86.76;101446.03;15800149;28;20093;-53
2024/02/19 09:46:24;;;;;;;0.00;0.00;;;;;;;6.25;87.74;101463.00;15802779;28;20131;-49
2024/02/19 09:53:59;;;;;;;0.00;0.00;;;;;;;6.43;87.25;101476.16;15772064;28;20400;-52
2024/02/19 10:01:33;;;;;;;0.00;0.00;;;;;;;6.11;89.42;101483.13;15789381;28;20455;-55
2024/02/19 10:09:11;;;;;;;0.00;0.00;;;;;;;6.26;89.60;101496.66;15789499;28;20075;-51
2024/02/19 10:16:50;;;;;;;0.00;0.00;;;;;;;6.12;90.08;101513.28;15809502;28;20404;-54
2024/02/19 10:24:26;;;;;;;0.08;0.08;;;;;;;6.59;89.40;101512.72;15810401;28;20050;-52
2024/02/19 10:32:00;;;;;;;0.57;0.35;;;;;;;6.60;88.27;101517.88;15811169;28;20127;-50
2024/02/19 10:39:37;;;;;;;0.00;0.00;;;;;;;6.80;88.05;101512.22;15793088;28;20032;-53
2024/02/19 10:47:15;;;;;;;0.05;0.05;;;;;;;7.13;87.25;101519.22;15808829;28;20029;-51
2024/02/19 10:54:55;;;;;;;0.00;0.00;;;;;;;6.64;89.74;101521.06;15810550;28;20036;-52
2024/02/19 11:02:29;;;;;;;0.00;0.00;;;;;;;7.02;89.81;101518.72;15792838;28;20138;-49
2024/02/19 11:10:09;;;;;;;0.00;0.00;;;;;;;7.12;89.24;101527.38;15788880;28;20432;-52
2024/02/19 11:17:44;;;;;;;0.00;0.00;;;;;;;6.93;89.63;101523.22;15812609;28;20047;-51
2024/02/19 11:25:21;;;;;;;0.00;0.00;;;;;;;7.18;88.44;101526.72;15819505;28;20070;-53
2024/02/19 11:33:00;;;;;;;0.00;0.00;;;;;;;7.34;87.50;101520.53;15821951;28;20036;-53
2024/02/19 11:40:36;;;;;;;0.00;0.00;;;;;;;7.60;87.63;101517.59;15808394;28;20040;-51
2024/02/19 11:48:11;;;;;;;0.00;0.00;;;;;;;7.54;86.83;101515.63;15813627;28;20059;-51
2024/02/19 11:55:45;;;;;;;0.00;0.00;;;;;;;7.56;87.33;101509.13;15792160;28;20044;-53
2024/02/19 12:03:20;;;;;;;0.05;0.05;;;;;;;7.86;86.81;101515.50;15796210;28;20113;-52
2024/02/19 12:10:58;;;;;;;0.00;0.00;;;;;;;7.90;86.92;101508.81;15778088;28;20036;-51
2024/02/19 12:18:32;;;;;;;0.00;0.00;;;;;;;7.68;87.48;101529.09;15794772;28;20132;-51
2024/02/19 12:26:10;;;;;;;0.43;0.38;;;;;;;8.03;85.75;101518.13;15788864;28;20404;-55
2024/02/19 12:33:44;;;;;;;0.00;0.00;;;;;;;8.39;84.50;101524.66;15787759;28;20051;-53
2024/02/19 12:41:19;;;;;;;2.17;0.47;;;;;;;8.33;84.02;101527.16;15805596;28;20115;-54
2024/02/19 12:48:57;;;;;;;0.80;0.28;;;;;;;8.76;82.55;101527.56;15787547;28;20048;-51
2024/02/19 12:56:33;;;;;;;0.00;0.00;;;;;;;8.34;84.78;101542.19;15787006;28;20044;-53
2024/02/19 13:04:09;;;;;;;0.00;0.00;;;;;;;8.46;84.51;101535.47;15802066;28;20550;-55
2024/02/19 13:11:45;;;;;;;0.00;0.00;;;;;;;8.15;87.36;101546.13;15805589;28;20048;-54
2024/02/19 13:19:20;;;;;;;0.00;0.00;;;;;;;8.43;87.17;101531.28;15803148;28;20416;-53
2024/02/19 13:26:56;;;;;;;0.00;0.00;;;;;;;8.39;85.99;101530.00;15803018;28;20036;-54
2024/02/19 13:34:29;;;;;;;0.00;0.00;;;;;;;8.64;85.23;101544.06;15788472;28;20052;-53
2024/02/19 13:42:04;;;;;;;;;;;;;;;8.69;85.09;101549.69;15789602;28;20119;-54
2024/02/19 13:49:39;;;;;;;0.00;0.00;;;;;;;8.64;84.92;101548.56;15770160;28;19920;-54
2024/02/19 13:57:14;;;;;;;0.10;0.10;;;;;;;8.87;83.07;101554.75;15768477;28;20036;-57
2024/02/19 14:04:48;;;;;;;0.00;0.00;;;;;;;9.11;81.75;101545.69;15783683;28;20047;-56
2024/02/19 14:12:23;;;;;;;0.00;0.00;;;;;;;9.67;79.43;101558.72;15792018;28;20044;-55
2024/02/19 14:20:07;;;;;;;0.00;0.00;;;;;;;9.22;80.00;101548.94;15801152;28;20079;-53
2024/02/19 14:27:43;;;;;;;0.00;0.00;;;;;;;9.10;80.48;101551.25;15788903;28;20120;-52
2024/02/19 14:35:17;;;;;;;0.00;0.00;;;;;;;8.86;80.49;101553.09;15791157;28;20157;-55
2024/02/19 14:42:52;;;;;;;0.00;0.00;;;;;;;9.16;80.65;101554.00;15793886;28;20078;-56
2024/02/19 14:50:26;;;;;;;0.00;0.00;;;;;;;8.75;84.58;101566.88;15792897;28;20039;-54
2024/02/19 14:58:02;;;;;;;0.00;0.00;;;;;;;8.50;86.37;101568.06;15790645;28;20454;-53
2024/02/19 15:05:35;;;;;;;0.00;0.00;;;;;;;8.46;87.58;101572.09;15793026;28;20071;-55
2024/02/19 15:13:11;;;;;;;0.00;0.00;;;;;;;8.30;88.08;101583.66;15772045;28;20097;-53
2024/02/19 15:20:47;;;;;;;0.00;0.00;;;;;;;8.41;87.44;101583.31;15785168;28;20044;-52
2024/02/19 15:28:23;;;;;;;0.00;0.00;;;;;;;8.45;86.55;101587.31;15788258;28;20055;-52
2024/02/19 15:35:58;;;;;;;0.00;0.00;;;;;;;8.46;87.01;101574.78;15811027;28;20420;-53
2024/02/19 15:43:33;;;;;;;0.00;0.00;;;;;;;8.50;87.42;101584.13;15771279;28;20073;-52
2024/02/19 15:51:07;;;;;;;0.00;0.00;;;;;;;8.66;86.92;101563.44;15773160;28;20051;-55
2024/02/19 15:58:47;;;;;;;0.10;0.10;;;;;;;8.89;86.84;101582.19;15743572;28;20052;-54
2024/02/19 16:06:27;;;;;;;0.00;0.00;;;;;;;8.97;84.95;101583.97;15776034;22;20048;-48
2024/02/19 16:14:03;;;;;;;0.00;0.00;;;;;;;8.78;87.39;101582.59;15716153;28;20111;-49
2024/02/19 16:21:38;;;;;;;0.00;0.00;;;;;;;8.76;87.43;101581.94;15674801;28;20131;-50
2024/02/19 16:29:14;;;;;;;0.00;0.00;;;;;;;9.30;85.37;101581.84;15674691;28;20069;-51
2024/02/19 16:36:53;;;;;;;0.50;0.40;;;;;;;9.50;84.63;101584.00;15681732;28;20156;-49
2024/02/19 16:44:30;;;;;;;0.17;0.15;;;;;;;9.27;84.74;101582.19;15676254;28;20087;-48
2024/02/19 16:52:05;;;;;;;0.00;0.00;;;;;;;8.94;84.65;101584.31;15702339;28;20492;-50
2024/02/19 16:59:40;;;;;;;0.00;0.00;;;;;;;8.82;86.49;101589.28;15737398;28;20198;-51
2024/02/19 17:07:16;;;;;;;0.00;0.00;;;;;;;9.13;84.69;101575.78;15740460;28;20040;-54
2024/02/19 17:14:50;;;;;;;0.00;0.00;;;;;;;9.02;84.63;101576.22;15734272;28;20126;-50
2024/02/19 17:22:25;;;;;;;0.10;0.10;;;;;;;8.95;84.07;101583.28;15738007;28;20044;-49
2024/02/19 17:30:01;;;;;;;0.00;0.00;;;;;;;8.64;86.01;101578.00;15736519;28;20031;-52
2024/02/19 17:37:35;;;;;;;0.00;0.00;;;;;;;8.47;87.16;101576.44;15736964;28;20449;-50
2024/02/19 17:45:12;;;;;;;1.17;0.88;;;;;;;8.76;85.28;101575.75;15725046;28;20037;-54
2024/02/19 17:52:46;;;;;;;0.22;0.22;;;;;;;8.28;87.53;101567.81;15697705;28;20048;-50
2024/02/19 18:00:22;;;;;;;0.00;0.00;;;;;;;8.16;88.42;101563.88;15732965;28;20397;-50
2024/02/19 18:07:55;;;;;;;0.00;0.00;;;;;;;8.00;88.32;101563.91;15710868;28;20102;-50
2024/02/19 18:15:31;;;;;;;0.00;0.00;;;;;;;8.17;87.50;101563.69;15670702;28;20342;-50
2024/02/19 18:23:09;;;;;;;0.00;0.00;;;;;;;8.19;88.18;101572.34;15672548;28;20452;-50
2024/02/19 18:30:47;;;;;;;0.00;0.00;;;;;;;8.17;88.47;101566.34;15737350;28;20446;-49
2024/02/19 18:38:22;;;;;;;0.00;0.00;;;;;;;8.08;88.90;101570.06;15735937;28;20044;-50
2024/02/19 18:45:59;;;;;;;0.00;0.00;;;;;;;8.05;89.27;101554.38;15742432;28;20382;-49
2024/02/19 18:53:33;;;;;;;0.00;0.00;;;;;;;8.55;87.50;101555.00;15741111;28;20051;-55
2024/02/19 19:01:10;;;;;;;0.00;0.00;;;;;;;8.03;89.72;101550.22;15742187;28;20040;-51
2024/02/19 19:08:44;;;;;;;0.80;0.80;;;;;;;8.18;87.95;101553.81;15734113;28;20485;-50
2024/02/19 19:16:19;;;;;;;0.00;0.00;;;;;;;8.28;88.83;101549.06;15729188;28;20033;-51
2024/02/19 19:23:53;;;;;;;1.45;1.35;;;;;;;8.32;88.62;101563.78;15681211;28;20072;-49
2024/02/19 19:31:28;;;;;;;0.00;0.00;;;;;;;8.22;88.85;101554.31;15734516;28;20098;-48
2024/02/19 19:39:01;;;;;;;0.90;0.43;;;;;;;8.41;88.25;101559.25;15694402;28;20064;-49
2024/02/19 19:46:39;;;;;;;0.30;0.20;;;;;;;8.56;88.44;101567.34;15739507;28;20449;-50
2024/02/19 19:54:12;;;;;;;0.10;0.10;;;;;;;8.53;88.19;101559.66;15737701;28;20145;-54
2024/02/19 20:01:47;;;;;;;0.00;0.00;;;;;;;8.81;86.48;101565.34;15735504;28;20170;-51
2024/02/19 20:09:23;;;;;;;0.38;0.38;;;;;;;8.92;86.13;101567.59;15728222;28;20044;-51
2024/02/19 20:16:59;;;;;;;1.60;1.20;;;;;;;8.42;88.15;101568.94;15725815;28;20047;-49
2024/02/19 20:24:34;;;;;;;0.55;0.55;;;;;;;8.58;87.76;101566.19;15730044;28;20044;-50
2024/02/19 20:32:11;;;;;;;0.00;0.00;;;;;;;8.65;87.93;101571.63;15733949;28;20127;-49
2024/02/19 20:39:46;;;;;;;3.97;1.67;;;;;;;8.72;87.16;101575.28;15732692;28;20037;-47
2024/02/19 20:47:22;;;;;;;0.00;0.00;;;;;;;8.65;87.81;101579.66;15723323;28;20040;-46
2024/02/19 20:54:57;;;;;;;0.00;0.00;;;;;;;8.87;86.01;101572.69;15732268;28;20067;-49
2024/02/19 21:02:32;;;;;;;0.00;0.00;;;;;;;8.60;87.12;101571.34;15735222;28;20120;-52
2024/02/19 21:10:06;;;;;;;0.43;0.43;;;;;;;8.69;87.09;101570.28;15734534;28;20036;-53
2024/02/19 21:17:45;;;;;;;0.00;0.00;;;;;;;8.72;86.56;101567.25;15684367;28;20045;-51
2024/02/19 21:25:19;;;;;;;0.00;0.00;;;;;;;9.32;84.56;101566.41;15720410;28;20040;-50
2024/02/19 21:32:54;;;;;;;0.10;0.10;;;;;;;8.64;86.06;101565.47;15732874;28;20052;-52
2024/02/19 21:40:29;;;;;;;0.05;0.05;;;;;;;8.94;86.24;101560.22;15726369;28;20033;-50
2024/02/19 21:48:06;;;;;;;0.20;0.20;;;;;;;8.74;86.18;101559.88;15713061;28;20040;-55
2024/02/19 21:55:41;;;;;;;0.00;0.00;;;;;;;8.78;86.59;101555.84;15700904;28;20272;-49
2024/02/19 22:03:16;;;;;;;0.45;0.30;;;;;;;8.80;85.86;101556.47;15762505;22;20054;-52
2024/02/19 22:10:49;;;;;;;0.88;0.55;;;;;;;9.02;85.08;101552.13;15817908;28;20044;-52
2024/02/19 22:18:26;;;;;;;4.45;0.90;;;;;;;8.91;85.77;101545.38;15785399;28;20044;-52
2024/02/19 22:25:59;;;;;;;0.00;0.00;;;;;;;9.24;84.51;101541.56;15768931;28;20447;-52
2024/02/19 22:33:35;;;;;;;0.35;0.35;;;;;;;9.11;84.45;101540.34;15741679;28;20051;-53
2024/02/19 22:41:08;;;;;;;0.30;0.30;;;;;;;8.85;86.18;101527.31;15747856;28;20091;-53
2024/02/19 22:48:44;;;;;;;0.55;0.55;;;;;;;8.73;86.48;101520.75;15805122;28;20048;-52
2024/02/19 22:56:19;;;;;;;0.00;0.00;;;;;;;8.68;87.22;101518.59;15812616;28;20048;-51
2024/02/19 23:03:55;;;;;;;0.10;0.10;;;;;;;8.80;86.81;101528.88;15794850;28;20048;-50
2024/02/19 23:11:29;;;;;;;0.05;0.05;;;;;;;8.67;86.21;101526.78;15737770;28;20044;-54
2024/02/19 23:19:05;;;;;;;0.40;0.40;;;;;;;8.65;87.58;101526.97;15742162;28;20504;-51
2024/02/19 23:26:41;;;;;;;0.05;0.05;;;;;;;8.43;88.29;101519.75;15761767;28;20040;-51
2024/02/19 23:34:16;;;;;;;0.20;0.20;;;;;;;8.76;86.23;101525.72;15761723;28;20101;-51
2024/02/19 23:41:50;;;;;;;0.43;0.43;;;;;;;8.56;87.03;101537.91;15736890;28;20173;-50
2024/02/19 23:49:25;;;;;;;0.00;0.00;;;;;;;8.75;86.97;101532.09;15776437;28;20071;-52
2024/02/19 23:56:59;;;;;;;0.08;0.08;;;;;;;8.66;87.49;101527.81;15787688;28;20101;-50
